createdAt,value
2023-02-04T00:01:02.734Z,10.70
2023-02-04T00:03:29.718Z,10.70
2023-02-04T00:05:56.672Z,10.70
2023-02-04T00:08:24.066Z,10.60
2023-02-04T00:10:50.996Z,10.60
2023-02-04T00:13:17.974Z,10.60
2023-02-04T00:15:45.086Z,10.60
2023-02-04T00:18:12.059Z,10.60
2023-02-04T00:20:38.947Z,10.60
2023-02-04T00:23:06.035Z,10.60
2023-02-04T00:25:33.100Z,10.50
2023-02-04T00:28:00.199Z,10.50
2023-02-04T00:30:27.327Z,10.50
2023-02-04T00:32:54.769Z,10.50
2023-02-04T00:35:22.642Z,10.50
2023-02-04T00:37:50.159Z,10.50
2023-02-04T00:40:17.608Z,10.50
2023-02-04T00:42:44.548Z,10.50
2023-02-04T00:45:12.774Z,10.50
2023-02-04T00:47:40.046Z,10.50
2023-02-04T00:50:07.432Z,10.50
2023-02-04T00:52:34.388Z,10.50
2023-02-04T00:55:02.356Z,10.50
2023-02-04T00:57:29.316Z,10.50
2023-02-04T00:59:56.262Z,10.50
2023-02-04T01:02:23.268Z,10.40
2023-02-04T01:04:50.239Z,10.50
2023-02-04T01:07:17.807Z,10.40
2023-02-04T01:09:44.825Z,10.40
2023-02-04T01:12:11.988Z,10.40
2023-02-04T01:14:39.059Z,10.40
2023-02-04T01:17:06.339Z,10.40
2023-02-04T01:19:33.314Z,10.40
2023-02-04T01:22:00.421Z,10.40
2023-02-04T01:24:27.403Z,10.40
2023-02-04T01:26:54.329Z,10.40
2023-02-04T01:29:21.249Z,10.40
2023-02-04T01:31:48.301Z,10.40
2023-02-04T01:34:15.374Z,10.40
2023-02-04T01:36:42.352Z,10.40
2023-02-04T01:39:09.262Z,10.40
2023-02-04T01:41:36.328Z,10.30
2023-02-04T01:44:03.432Z,10.30
2023-02-04T01:46:34.400Z,10.30
2023-02-04T01:49:02.681Z,10.30
2023-02-04T01:51:32.009Z,10.20
2023-02-04T01:54:00.345Z,10.30
2023-02-04T01:56:30.087Z,10.20
2023-02-04T01:58:58.553Z,10.20
2023-02-04T02:01:42.121Z,10.20
2023-02-04T02:04:13.688Z,10.20
2023-02-04T02:06:53.860Z,10.20
2023-02-04T02:09:21.211Z,10.20
2023-02-04T02:11:48.551Z,10.20
2023-02-04T02:14:15.764Z,10.20
2023-02-04T02:16:43.335Z,10.20
2023-02-04T02:19:16.358Z,10.10
2023-02-04T02:21:52.196Z,10.10
2023-02-04T02:24:29.982Z,10.10
2023-02-04T02:27:01.256Z,10.10
2023-02-04T02:29:29.033Z,10.10
2023-02-04T02:31:57.661Z,10.00
2023-02-04T02:34:26.787Z,10.00
2023-02-04T02:36:53.998Z,10.00
2023-02-04T02:39:38.928Z,10.00
2023-02-04T02:42:05.987Z,9.90
2023-02-04T02:44:33.992Z,9.90
2023-02-04T02:47:02.369Z,9.90
2023-02-04T02:49:32.465Z,9.80
2023-02-04T02:51:59.650Z,9.80
2023-02-04T02:54:32.313Z,9.80
2023-02-04T02:57:00.142Z,9.80
2023-02-04T02:59:27.738Z,9.80
2023-02-04T03:02:02.964Z,9.80
2023-02-04T03:04:34.037Z,9.80
2023-02-04T03:07:01.509Z,9.70
2023-02-04T03:09:29.278Z,9.70
2023-02-04T03:11:56.634Z,9.70
2023-02-04T03:14:25.404Z,9.70
2023-02-04T03:16:54.652Z,9.70
2023-02-04T03:19:26.217Z,9.70
2023-02-04T03:21:55.645Z,9.70
2023-02-04T03:24:23.266Z,9.70
2023-02-04T03:26:50.300Z,9.70
2023-02-04T03:29:17.532Z,9.70
2023-02-04T03:31:44.736Z,9.70
2023-02-04T03:34:11.784Z,9.60
2023-02-04T03:36:38.927Z,9.70
2023-02-04T03:39:05.902Z,9.70
2023-02-04T03:41:32.901Z,9.70
2023-02-04T03:44:00.034Z,9.70
2023-02-04T03:46:28.598Z,9.60
2023-02-04T03:48:55.791Z,9.60
2023-02-04T03:51:22.866Z,9.60
2023-02-04T03:53:49.885Z,9.60
2023-02-04T03:56:17.953Z,9.60
2023-02-04T03:58:49.772Z,9.60
2023-02-04T04:01:16.870Z,9.60
2023-02-04T04:03:43.948Z,9.60
2023-02-04T04:06:11.264Z,9.60
2023-02-04T04:08:39.183Z,9.60
2023-02-04T04:11:07.237Z,9.60
2023-02-04T04:13:34.250Z,9.60
2023-02-04T04:16:01.358Z,9.60
2023-02-04T04:18:28.299Z,9.60
2023-02-04T04:20:55.223Z,9.60
2023-02-04T04:23:22.146Z,9.60
2023-02-04T04:25:49.166Z,9.60
2023-02-04T04:28:16.252Z,9.60
2023-02-04T04:30:43.336Z,9.60
2023-02-04T04:33:10.442Z,9.60
2023-02-04T04:35:37.362Z,9.60
2023-02-04T04:38:04.527Z,9.60
2023-02-04T04:40:31.892Z,9.60
2023-02-04T04:42:59.084Z,9.60
2023-02-04T04:45:26.245Z,9.60
2023-02-04T04:47:53.251Z,9.70
2023-02-04T04:50:20.362Z,9.60
2023-02-04T04:52:47.585Z,9.70
2023-02-04T04:55:14.639Z,9.60
2023-02-04T04:57:41.621Z,9.70
2023-02-04T05:00:10.344Z,9.70
2023-02-04T05:02:37.340Z,9.60
2023-02-04T05:05:04.560Z,9.60
2023-02-04T05:07:31.647Z,9.60
2023-02-04T05:09:58.658Z,9.70
2023-02-04T05:12:25.615Z,9.60
2023-02-04T05:14:52.643Z,9.60
2023-02-04T05:17:19.661Z,9.60
2023-02-04T05:19:46.670Z,9.60
2023-02-04T05:22:13.851Z,9.60
2023-02-04T05:24:40.852Z,9.60
2023-02-04T05:27:08.036Z,9.60
2023-02-04T05:29:35.008Z,9.50
2023-02-04T05:32:02.014Z,9.60
2023-02-04T05:34:29.167Z,9.50
2023-02-04T05:36:56.492Z,9.50
2023-02-04T05:39:29.036Z,9.50
2023-02-04T05:41:56.020Z,9.50
2023-02-04T05:44:23.188Z,9.50
2023-02-04T05:46:50.202Z,9.50
2023-02-04T05:49:17.491Z,9.50
2023-02-04T05:51:44.616Z,9.50
2023-02-04T05:54:11.680Z,9.50
2023-02-04T05:56:42.032Z,9.50
2023-02-04T05:59:09.157Z,9.50
2023-02-04T06:01:36.207Z,9.50
2023-02-04T06:04:03.321Z,9.50
2023-02-04T06:06:30.308Z,9.40
2023-02-04T06:08:57.442Z,9.40
2023-02-04T06:11:24.410Z,9.40
2023-02-04T06:13:51.491Z,9.40
2023-02-04T06:16:22.144Z,9.40
2023-02-04T06:18:49.135Z,9.40
2023-02-04T06:21:16.240Z,9.40
2023-02-04T06:23:45.571Z,9.40
2023-02-04T06:26:13.264Z,9.40
2023-02-04T06:28:40.189Z,9.40
2023-02-04T06:31:09.203Z,9.40
2023-02-04T06:33:37.464Z,9.40
2023-02-04T06:36:05.309Z,9.40
2023-02-04T06:38:33.271Z,9.40
2023-02-04T06:41:00.546Z,9.30
2023-02-04T06:43:28.099Z,9.40
2023-02-04T06:45:55.478Z,9.30
2023-02-04T06:48:22.516Z,9.30
2023-02-04T06:50:49.522Z,9.30
2023-02-04T06:53:16.445Z,9.30
2023-02-04T06:55:43.549Z,9.20
2023-02-04T06:58:10.519Z,9.30
2023-02-04T07:00:37.463Z,9.30
2023-02-04T07:03:04.773Z,9.20
2023-02-04T07:05:31.994Z,9.20
2023-02-04T07:07:58.952Z,9.20
2023-02-04T07:10:25.935Z,9.30
2023-02-04T07:12:53.096Z,9.30
2023-02-04T07:15:20.272Z,9.30
2023-02-04T07:17:47.207Z,9.20
2023-02-04T07:20:14.266Z,9.30
2023-02-04T07:22:42.309Z,9.30
2023-02-04T07:25:10.429Z,9.20
2023-02-04T07:27:37.418Z,9.20
2023-02-04T07:30:04.589Z,9.10
2023-02-04T07:32:32.889Z,9.10
2023-02-04T07:35:01.895Z,9.10
2023-02-04T07:37:28.995Z,9.10
2023-02-04T07:39:55.946Z,9.00
2023-02-04T07:42:22.864Z,9.00
2023-02-04T07:44:49.778Z,9.00
2023-02-04T07:47:16.716Z,9.00
2023-02-04T07:49:43.637Z,8.90
2023-02-04T07:52:10.677Z,8.90
2023-02-04T07:54:37.616Z,9.00
2023-02-04T07:57:04.596Z,9.00
2023-02-04T07:59:31.540Z,8.90
2023-02-04T08:02:02.214Z,8.90
2023-02-04T08:04:29.318Z,8.90
2023-02-04T08:06:56.251Z,8.90
2023-02-04T08:09:23.982Z,9.00
2023-02-04T08:11:50.963Z,9.10
2023-02-04T08:14:18.016Z,9.20
2023-02-04T08:16:44.997Z,9.30
2023-02-04T08:19:12.699Z,9.30
2023-02-04T08:21:39.730Z,9.40
2023-02-04T08:24:06.711Z,9.40
2023-02-04T08:26:33.641Z,9.40
2023-02-04T08:29:01.416Z,9.30
2023-02-04T08:31:28.373Z,9.30
2023-02-04T08:33:55.395Z,9.40
2023-02-04T08:36:22.382Z,9.40
2023-02-04T08:38:49.349Z,9.40
2023-02-04T08:41:16.486Z,9.40
2023-02-04T08:43:43.406Z,9.50
2023-02-04T08:46:10.667Z,9.50
2023-02-04T08:48:37.846Z,9.50
2023-02-04T08:51:05.147Z,9.50
2023-02-04T08:53:32.151Z,9.60
2023-02-04T08:55:59.067Z,9.70
2023-02-04T08:58:26.163Z,9.70
2023-02-04T09:00:53.273Z,9.70
2023-02-04T09:03:20.453Z,9.70
2023-02-04T09:05:47.684Z,9.80
2023-02-04T09:08:15.842Z,9.80
2023-02-04T09:10:42.944Z,9.80
2023-02-04T09:13:11.754Z,9.80
2023-02-04T09:15:38.813Z,9.90
2023-02-04T09:18:14.627Z,9.90
2023-02-04T09:20:41.634Z,10.00
2023-02-04T09:23:10.582Z,10.10
2023-02-04T09:25:39.101Z,10.20
2023-02-04T09:28:07.035Z,10.30
2023-02-04T09:30:34.467Z,10.40
2023-02-04T09:33:02.017Z,10.50
2023-02-04T09:35:29.009Z,10.60
2023-02-04T09:37:55.953Z,10.70
2023-02-04T09:40:23.826Z,10.80
2023-02-04T09:42:52.599Z,10.80
2023-02-04T09:45:28.974Z,10.80
2023-02-04T09:47:59.071Z,10.80
2023-02-04T09:50:29.669Z,11.00
2023-02-04T09:53:10.196Z,11.10
2023-02-04T09:55:41.232Z,11.30
2023-02-04T09:58:18.110Z,11.30
2023-02-04T10:01:14.820Z,11.40
2023-02-04T10:03:46.690Z,11.30
2023-02-04T10:06:24.003Z,11.30
2023-02-04T10:08:51.749Z,11.30
2023-02-04T10:11:21.631Z,11.20
2023-02-04T10:13:52.340Z,11.10
2023-02-04T10:16:30.416Z,11.20
2023-02-04T10:19:00.781Z,11.20
2023-02-04T10:21:33.076Z,11.30
2023-02-04T10:24:03.509Z,11.30
2023-02-04T10:26:32.135Z,11.40
2023-02-04T10:29:06.254Z,11.40
2023-02-04T10:31:37.942Z,11.50
2023-02-04T10:34:22.747Z,11.50
2023-02-04T10:36:54.210Z,11.50
2023-02-04T10:39:29.486Z,11.50
2023-02-04T10:41:59.635Z,11.50
2023-02-04T10:44:33.026Z,11.50
2023-02-04T10:47:27.294Z,11.50
2023-02-04T10:49:55.442Z,11.50
2023-02-04T10:52:29.787Z,11.40
2023-02-04T10:54:56.967Z,11.40
2023-02-04T10:57:30.255Z,11.30
2023-02-04T11:00:02.610Z,11.30
2023-02-04T11:02:48.781Z,11.40
2023-02-04T11:05:22.665Z,11.40
2023-02-04T11:07:51.043Z,11.30
2023-02-04T11:10:22.870Z,11.30
2023-02-04T11:12:55.899Z,11.30
2023-02-04T11:15:50.984Z,11.30
2023-02-04T11:18:21.071Z,11.30
2023-02-04T11:20:59.089Z,11.40
2023-02-04T11:23:25.946Z,11.30
2023-02-04T11:26:19.244Z,11.30
2023-02-04T11:28:59.531Z,11.40
2023-02-04T11:31:35.207Z,11.40
2023-02-04T11:34:18.390Z,11.40
2023-02-04T11:37:08.905Z,11.50
2023-02-04T11:39:42.523Z,11.60
2023-02-04T11:42:27.201Z,11.60
2023-02-04T11:45:00.403Z,11.60
2023-02-04T11:47:34.774Z,11.60
2023-02-04T11:50:18.903Z,11.60
2023-02-04T11:52:45.880Z,11.60
2023-02-04T11:55:13.402Z,11.70
2023-02-04T11:57:42.947Z,11.60
2023-02-04T12:00:16.370Z,11.60
2023-02-04T12:02:50.531Z,11.60
2023-02-04T12:05:20.425Z,11.60
2023-02-04T12:07:48.743Z,11.60
2023-02-04T12:10:18.639Z,11.50
2023-02-04T12:12:57.729Z,11.50
2023-02-04T12:15:36.798Z,11.50
2023-02-04T12:18:09.941Z,11.50
2023-02-04T12:20:37.516Z,11.40
2023-02-04T12:23:04.854Z,11.50
2023-02-04T12:25:32.530Z,11.50
2023-02-04T12:27:59.821Z,11.40
2023-02-04T12:30:27.258Z,11.40
2023-02-04T12:32:54.548Z,11.40
2023-02-04T12:35:21.556Z,11.30
2023-02-04T12:37:48.523Z,11.30
2023-02-04T12:40:21.043Z,11.30
2023-02-04T12:42:48.153Z,11.40
2023-02-04T12:45:17.516Z,11.30
2023-02-04T12:47:45.041Z,11.30
2023-02-04T12:50:22.577Z,11.30
2023-02-04T12:52:57.615Z,11.30
2023-02-04T12:55:28.383Z,11.30
2023-02-04T12:57:56.325Z,11.30
2023-02-04T13:00:23.766Z,11.30
2023-02-04T13:02:51.191Z,11.30
2023-02-04T13:05:18.539Z,11.30
2023-02-04T13:07:46.301Z,11.30
2023-02-04T13:10:14.317Z,11.20
2023-02-04T13:12:41.521Z,11.20
2023-02-04T13:15:09.850Z,11.30
2023-02-04T13:17:37.062Z,11.30
2023-02-04T13:20:05.348Z,11.30
2023-02-04T13:22:32.378Z,11.40
2023-02-04T13:24:59.662Z,11.40
2023-02-04T13:27:27.889Z,11.30
2023-02-04T13:29:54.839Z,11.30
2023-02-04T13:32:21.920Z,11.30
2023-02-04T13:34:48.873Z,11.30
2023-02-04T13:37:15.804Z,11.30
2023-02-04T13:39:42.751Z,11.30
2023-02-04T13:42:09.776Z,11.30
2023-02-04T13:44:36.755Z,11.30
2023-02-04T13:47:03.746Z,11.30
2023-02-04T13:49:30.702Z,11.30
2023-02-04T13:51:57.757Z,11.40
2023-02-04T13:54:25.481Z,11.40
2023-02-04T13:56:52.640Z,11.40
2023-02-04T13:59:20.978Z,11.30
2023-02-04T14:01:48.118Z,11.50
2023-02-04T14:04:15.141Z,11.50
2023-02-04T14:06:43.708Z,11.50
2023-02-04T14:09:14.596Z,11.50
2023-02-04T14:11:41.563Z,11.60
2023-02-04T14:14:08.793Z,11.60
2023-02-04T14:16:37.879Z,11.50
2023-02-04T14:19:06.168Z,11.40
2023-02-04T14:21:33.611Z,11.30
2023-02-04T14:24:01.425Z,11.30
2023-02-04T14:26:28.370Z,11.20
2023-02-04T14:28:55.323Z,11.20
2023-02-04T14:31:23.385Z,11.30
2023-02-04T14:33:50.545Z,11.30
2023-02-04T14:36:17.714Z,11.30
2023-02-04T14:38:44.733Z,11.30
2023-02-04T14:41:16.271Z,11.30
2023-02-04T14:43:43.335Z,11.40
2023-02-04T14:46:10.357Z,11.40
2023-02-04T14:48:37.410Z,11.30
2023-02-04T14:51:04.811Z,11.30
2023-02-04T14:53:31.746Z,11.30
2023-02-04T14:55:58.700Z,11.30
2023-02-04T14:58:27.831Z,11.30
2023-02-04T15:00:55.107Z,11.30
2023-02-04T15:03:22.422Z,11.20
2023-02-04T15:05:49.367Z,11.20
2023-02-04T15:08:16.459Z,11.10
2023-02-04T15:10:43.402Z,11.10
2023-02-04T15:13:11.318Z,11.10
2023-02-04T15:15:38.460Z,11.10
2023-02-04T15:18:05.639Z,11.10
2023-02-04T15:20:33.053Z,11.10
2023-02-04T15:23:00.863Z,11.10
2023-02-04T15:25:28.056Z,11.10
2023-02-04T15:27:55.094Z,11.10
2023-02-04T15:30:22.748Z,11.10
2023-02-04T15:32:49.781Z,11.10
2023-02-04T15:35:16.729Z,11.10
2023-02-04T15:37:43.658Z,11.10
2023-02-04T15:40:12.135Z,11.00
2023-02-04T15:42:39.091Z,11.00
2023-02-04T15:45:07.371Z,11.00
2023-02-04T15:47:34.384Z,10.90
2023-02-04T15:50:01.382Z,10.90
2023-02-04T15:52:29.368Z,10.90
2023-02-04T15:54:56.672Z,10.90
2023-02-04T15:57:23.791Z,10.80
2023-02-04T15:59:50.814Z,10.80
2023-02-04T16:02:17.821Z,10.80
2023-02-04T16:04:45.606Z,10.80
2023-02-04T16:07:12.767Z,10.70
2023-02-04T16:09:39.853Z,10.70
2023-02-04T16:12:07.178Z,10.60
2023-02-04T16:14:34.319Z,10.60
2023-02-04T16:17:02.026Z,10.60
2023-02-04T16:19:29.705Z,10.50
2023-02-04T16:21:56.717Z,10.50
2023-02-04T16:24:23.846Z,10.50
2023-02-04T16:26:50.813Z,10.50
2023-02-04T16:29:17.993Z,10.40
2023-02-04T16:31:45.049Z,10.40
2023-02-04T16:34:12.025Z,10.40
2023-02-04T16:36:38.937Z,10.30
2023-02-04T16:39:05.833Z,10.30
2023-02-04T16:41:32.843Z,10.20
2023-02-04T16:44:00.214Z,10.20
2023-02-04T16:46:28.758Z,10.20
2023-02-04T16:48:55.919Z,10.10
2023-02-04T16:51:23.039Z,10.10
2023-02-04T16:53:50.494Z,10.10
2023-02-04T16:56:17.509Z,10.10
2023-02-04T16:58:44.862Z,10.00
2023-02-04T17:01:11.895Z,10.00
2023-02-04T17:03:39.553Z,10.00
2023-02-04T17:06:07.269Z,10.00
2023-02-04T17:08:34.357Z,9.90
2023-02-04T17:11:19.641Z,9.90
2023-02-04T17:13:46.560Z,9.90
2023-02-04T17:16:13.512Z,9.90
2023-02-04T17:18:40.539Z,9.90
2023-02-04T17:21:07.516Z,9.80
2023-02-04T17:23:35.704Z,9.80
2023-02-04T17:26:02.705Z,9.80
2023-02-04T17:28:29.674Z,9.80
2023-02-04T17:30:56.648Z,9.80
2023-02-04T17:33:23.766Z,9.70
2023-02-04T17:35:50.865Z,9.70
2023-02-04T17:38:17.840Z,9.70
2023-02-04T17:40:44.786Z,9.70
2023-02-04T17:43:11.767Z,9.70
2023-02-04T17:45:38.754Z,9.60
2023-02-04T17:48:05.887Z,9.60
2023-02-04T17:53:10.947Z,9.60
2023-02-04T17:55:39.800Z,9.50
2023-02-04T17:58:17.073Z,9.50
2023-02-04T18:00:46.684Z,9.50
2023-02-04T18:03:16.625Z,9.50
2023-02-04T18:05:47.545Z,9.50
2023-02-04T18:08:39.684Z,9.50
2023-02-04T18:11:20.501Z,9.50
2023-02-04T18:13:50.775Z,9.40
2023-02-04T18:16:30.804Z,9.40
2023-02-04T18:19:30.946Z,9.40
2023-02-04T18:21:59.675Z,9.40
2023-02-04T18:24:34.127Z,9.40
2023-02-04T18:27:13.162Z,9.40
2023-02-04T18:29:41.521Z,9.40
2023-02-04T18:32:21.725Z,9.40
2023-02-04T18:34:52.532Z,9.40
2023-02-04T18:37:33.422Z,9.40
2023-02-04T18:40:09.628Z,9.40
2023-02-04T18:42:43.700Z,9.40
2023-02-04T18:45:27.360Z,9.30
2023-02-04T18:48:14.977Z,9.30
2023-02-04T18:50:42.270Z,9.30
2023-02-04T18:53:15.305Z,9.30
2023-02-04T18:55:50.984Z,9.30
2023-02-04T18:58:37.792Z,9.30
2023-02-04T19:01:17.120Z,9.30
2023-02-04T19:03:52.217Z,9.30
2023-02-04T19:06:40.211Z,9.20
2023-02-04T19:09:13.537Z,9.20
2023-02-04T19:11:51.452Z,9.20
2023-02-04T19:14:28.296Z,9.20
2023-02-04T19:17:16.948Z,9.20
2023-02-04T19:19:59.927Z,9.10
2023-02-04T19:22:42.674Z,9.10
2023-02-04T19:25:36.949Z,9.10
2023-02-04T19:28:33.133Z,9.10
2023-02-04T19:31:06.222Z,9.10
2023-02-04T19:33:42.980Z,9.00
2023-02-04T19:36:30.355Z,9.00
2023-02-04T19:39:35.436Z,9.00
2023-02-04T19:42:29.489Z,9.00
2023-02-04T19:45:22.078Z,9.00
2023-02-04T19:47:51.874Z,9.00
2023-02-04T19:50:34.246Z,9.00
2023-02-04T19:53:19.736Z,9.00
2023-02-04T19:55:50.950Z,8.90
2023-02-04T19:58:39.415Z,8.90
2023-02-04T20:01:15.258Z,8.90
2023-02-04T20:03:50.044Z,8.90
2023-02-04T20:06:38.501Z,8.80
2023-02-04T20:09:29.110Z,8.80
2023-02-04T20:12:13.649Z,8.80
2023-02-04T20:14:50.174Z,8.80
2023-02-04T20:17:24.420Z,8.80
2023-02-04T20:19:51.602Z,8.80
2023-02-04T20:22:18.612Z,8.80
2023-02-04T20:24:59.725Z,8.70
2023-02-04T20:27:39.530Z,8.70
2023-02-04T20:30:12.242Z,8.80
2023-02-04T20:32:47.657Z,8.80
2023-02-04T20:35:14.497Z,8.80
2023-02-04T20:37:42.899Z,8.80
2023-02-04T20:40:31.536Z,8.70
2023-02-04T20:43:15.578Z,8.70
2023-02-04T20:46:04.695Z,8.70
2023-02-04T20:48:36.693Z,8.70
2023-02-04T20:51:05.702Z,8.70
2023-02-04T20:53:50.399Z,8.70
2023-02-04T20:56:30.549Z,8.70
2023-02-04T20:59:27.707Z,8.70
2023-02-04T21:01:56.093Z,8.70
2023-02-04T21:04:39.594Z,8.70
2023-02-04T21:07:17.129Z,8.70
2023-02-04T21:09:44.462Z,8.70
2023-02-04T21:12:11.585Z,8.70
2023-02-04T21:14:38.612Z,8.70
2023-02-04T21:17:06.197Z,8.70
2023-02-04T21:19:35.169Z,8.70
2023-02-04T21:22:02.666Z,8.70
2023-02-04T21:24:33.236Z,8.60
2023-02-04T21:27:00.234Z,8.60
2023-02-04T21:29:27.221Z,8.60
2023-02-04T21:31:54.642Z,8.60
2023-02-04T21:34:22.102Z,8.60
2023-02-04T21:36:49.238Z,8.60
2023-02-04T21:39:16.194Z,8.60
2023-02-04T21:41:43.172Z,8.50
2023-02-04T21:44:10.363Z,8.60
2023-02-04T21:46:37.310Z,8.50
2023-02-04T21:49:05.318Z,8.50
2023-02-04T21:51:32.296Z,8.50
2023-02-04T21:54:00.065Z,8.50
2023-02-04T21:56:27.039Z,8.50
2023-02-04T21:58:54.332Z,8.50
2023-02-04T22:01:21.484Z,8.50
2023-02-04T22:03:48.498Z,8.40
2023-02-04T22:06:15.488Z,8.40
2023-02-04T22:08:42.403Z,8.40
2023-02-04T22:11:09.390Z,8.40
2023-02-04T22:13:54.710Z,8.50
2023-02-04T22:16:21.933Z,8.50
2023-02-04T22:18:48.928Z,8.50
2023-02-04T22:21:15.863Z,8.50
2023-02-04T22:23:42.812Z,8.50
2023-02-04T22:26:09.847Z,8.50
2023-02-04T22:28:36.857Z,8.50
2023-02-04T22:31:03.937Z,8.50
2023-02-04T22:33:31.014Z,8.50
2023-02-04T22:35:57.987Z,8.50
2023-02-04T22:38:25.055Z,8.60
2023-02-04T22:40:52.015Z,8.60
2023-02-04T22:43:19.053Z,8.60
2023-02-04T22:45:46.023Z,8.60
2023-02-04T22:48:13.004Z,8.60
2023-02-04T22:50:39.973Z,8.60
2023-02-04T22:53:06.915Z,8.60
2023-02-04T22:55:34.143Z,8.60
2023-02-04T22:58:01.288Z,8.60
2023-02-04T23:00:28.281Z,8.60
2023-02-04T23:02:55.310Z,8.60
2023-02-04T23:05:22.282Z,8.60
2023-02-04T23:07:49.330Z,8.60
2023-02-04T23:10:16.658Z,8.60
2023-02-04T23:12:43.679Z,8.60
2023-02-04T23:15:12.497Z,8.60
2023-02-04T23:17:39.548Z,8.50
2023-02-04T23:20:07.382Z,8.50
2023-02-04T23:22:34.535Z,8.50
2023-02-04T23:25:04.725Z,8.50
2023-02-04T23:27:32.976Z,8.50
2023-02-04T23:29:59.966Z,8.50
2023-02-04T23:32:27.745Z,8.50
2023-02-04T23:34:55.406Z,8.50
2023-02-04T23:37:22.561Z,8.40
2023-02-04T23:39:49.568Z,8.40
2023-02-04T23:42:16.538Z,8.40
2023-02-04T23:44:43.737Z,8.40
2023-02-04T23:47:10.676Z,8.40
2023-02-04T23:49:37.655Z,8.40
2023-02-04T23:52:05.677Z,8.40
2023-02-04T23:54:32.722Z,8.40
2023-02-04T23:57:00.114Z,8.40
2023-02-04T23:59:27.608Z,8.30
